KRBL/RBL METAR and TAF weather

Enter ICAO airport designator
Station Type Date Time Source
KRBL METAR 2019/02/20 22:54 UTC NOAA

KRBL 202254Z AUTO VRB05KT 10SM FEW060 SCT070 BKN095 12/M01 A2979 RMK AO2 SLP087 T01221011


Station Type Date Time Source
KRBL Decoded METAR 2019/02/20 22:54 UTC NOAA

RED BLUFF MUNICIPAL AIRPORT, CA, United States (KRBL) 40-09N 122-15W 104M
Feb 20, 2019 - 05:54 PM EST / 2019.02.20 2254 UTC
Wind: Variable at 6 MPH (5 KT):0
Visibility: 10 mile(s):0
Sky conditions: mostly cloudy
Temperature: 54.0 F (12.2 C)
Dew Point: 30.0 F (-1.1 C)
Relative Humidity: 39%
Pressure (altimeter): 29.79 in. Hg (1008 hPa)
ob: KRBL 202254Z AUTO VRB05KT 10SM FEW060 SCT070 BKN095 12/M01 A2979 RMK AO2 SLP087 T01221011
cycle: 23

Station Type Date Time Source
KRBL TAF 2019/02/20 18:36 UTC NOAA

TAF KRBL 202135Z 2018/2118 33007KT P6SM BKN050
FM211200 34012KT P6SM SCT250
FM211600 35019G27KT P6SM SKC


Example: see airport list